Southowram, United Kingdom
Current Conditions -  °F | °C
As of 2:50 AM on Tuesday 23 Dec 2014 (Local Time) from EGNM Reporting Station
Rain Showers Rain Showers  
Wind Chill: 52°   Ceiling: 1600
Heat Index: 52°   Visibility: 6mi
Dew Point: 46°   Wind: 24mph
Humidity: 82%   Direction: 240°WSW
Pressure: 29.74"   Gusts: 41mph
Location:  53.71°N, 1.83°W
Report Text: EGNM 230250Z 24021G36KT 200V280 9999 -SHRA BKN016 11/08 Q1007
Loading
Personal Weather Stations






























Interactive Weather Map New forecast layout! Learn more

10-Day Weather Forecast

Advertisements
Track Severe Weather on mobile